sensor_id;sensor_type;location;lat;lon;timestamp;pressure;altitude;pressure_sealevel;temperature;humidity
13709;BME280;54933;51.908;7.730;2022-10-16T00:00:16;100452.34;;;22.19;89.73
13709;BME280;54933;51.908;7.730;2022-10-16T00:02:41;100449.63;;;22.19;89.77
13709;BME280;54933;51.908;7.730;2022-10-16T00:05:06;100449.63;;;22.19;89.83
13709;BME280;54933;51.908;7.730;2022-10-16T00:07:32;100455.03;;;22.19;89.88
13709;BME280;54933;51.908;7.730;2022-10-16T00:09:57;100459.84;;;22.17;89.89
13709;BME280;54933;51.908;7.730;2022-10-16T00:12:22;100465.03;;;22.18;90.16
13709;BME280;54933;51.908;7.730;2022-10-16T00:14:47;100453.38;;;22.18;90.16
13709;BME280;54933;51.908;7.730;2022-10-16T00:17:13;100453.38;;;22.18;89.96
13709;BME280;54933;51.908;7.730;2022-10-16T00:19:38;100452.53;;;22.17;89.81
13709;BME280;54933;51.908;7.730;2022-10-16T00:22:03;100449.63;;;22.19;89.93
13709;BME280;54933;51.908;7.730;2022-10-16T00:24:28;100457.16;;;22.17;89.94
13709;BME280;54933;51.908;7.730;2022-10-16T00:26:54;100458.78;;;22.18;90.07
13709;BME280;54933;51.908;7.730;2022-10-16T00:29:19;100460.44;;;22.19;89.91
13709;BME280;54933;51.908;7.730;2022-10-16T00:31:44;100452.34;;;22.19;89.80
13709;BME280;54933;51.908;7.730;2022-10-16T00:34:09;100454.19;;;22.18;90.24
13709;BME280;54933;51.908;7.730;2022-10-16T00:36:35;100458.78;;;22.18;89.79
13709;BME280;54933;51.908;7.730;2022-10-16T00:39:00;100461.25;;;22.19;89.97
13709;BME280;54933;51.908;7.730;2022-10-16T00:41:27;100456.66;;;22.20;90.08
13709;BME280;54933;51.908;7.730;2022-10-16T00:43:57;100449.63;;;22.19;89.73
13709;BME280;54933;51.908;7.730;2022-10-16T00:46:29;100455.03;;;22.19;89.80
13709;BME280;54933;51.908;7.730;2022-10-16T00:49:11;100466.44;;;22.21;89.69
13709;BME280;54933;51.908;7.730;2022-10-16T00:51:49;100466.44;;;22.21;89.65
13709;BME280;54933;51.908;7.730;2022-10-16T00:54:19;100471.03;;;22.20;89.89
13709;BME280;54933;51.908;7.730;2022-10-16T00:56:46;100480.19;;;22.19;89.50
13709;BME280;54933;51.908;7.730;2022-10-16T00:59:19;100478.56;;;22.18;89.79
13709;BME280;54933;51.908;7.730;2022-10-16T01:01:47;100471.47;;;22.17;89.63
13709;BME280;54933;51.908;7.730;2022-10-16T01:04:12;100464.19;;;22.18;89.75
13709;BME280;54933;51.908;7.730;2022-10-16T01:06:54;100469.59;;;22.18;89.77
13709;BME280;54933;51.908;7.730;2022-10-16T01:09:55;100468.78;;;22.17;89.87
13709;BME280;54933;51.908;7.730;2022-10-16T01:12:38;100463.34;;;22.17;89.93
13709;BME280;54933;51.908;7.730;2022-10-16T01:15:30;100468.78;;;22.17;89.79
13709;BME280;54933;51.908;7.730;2022-10-16T01:20:33;100463.59;;;22.16;90.11
13709;BME280;54933;51.908;7.730;2022-10-16T01:28:51;100481.50;;;22.17;89.96
13709;BME280;54933;51.908;7.730;2022-10-16T01:31:23;100470.69;;;22.17;89.98
13709;BME280;54933;51.908;7.730;2022-10-16T01:37:22;100463.59;;;22.16;89.84
13709;BME280;54933;51.908;7.730;2022-10-16T01:39:54;100466.31;;;22.16;90.40
13709;BME280;54933;51.908;7.730;2022-10-16T01:42:24;100460.88;;;22.16;89.96
13709;BME280;54933;51.908;7.730;2022-10-16T01:44:54;100465.50;;;22.15;89.80
13709;BME280;54933;51.908;7.730;2022-10-16T01:47:23;100471.72;;;22.16;90.28
13709;BME280;54933;51.908;7.730;2022-10-16T01:49:50;100469.00;;;22.16;89.78
13709;BME280;54933;51.908;7.730;2022-10-16T01:52:20;100460.88;;;22.16;90.38
13709;BME280;54933;51.908;7.730;2022-10-16T01:54:50;100460.88;;;22.16;90.04
13709;BME280;54933;51.908;7.730;2022-10-16T01:57:18;100461.94;;;22.15;89.93
13709;BME280;54933;51.908;7.730;2022-10-16T01:59:48;100455.47;;;22.16;90.12
13709;BME280;54933;51.908;7.730;2022-10-16T02:02:17;100460.88;;;22.16;89.96
13709;BME280;54933;51.908;7.730;2022-10-16T02:04:49;100467.38;;;22.15;90.09
13709;BME280;54933;51.908;7.730;2022-10-16T02:07:16;100475.50;;;22.15;90.03
13709;BME280;54933;51.908;7.730;2022-10-16T02:09:42;100471.72;;;22.16;89.97
13709;BME280;54933;51.908;7.730;2022-10-16T02:12:23;100471.72;;;22.16;89.90
13709;BME280;54933;51.908;7.730;2022-10-16T02:14:51;100465.50;;;22.15;89.95
13709;BME280;54933;51.908;7.730;2022-10-16T02:17:20;100463.59;;;22.16;90.06
13709;BME280;54933;51.908;7.730;2022-10-16T02:19:48;100471.72;;;22.16;89.79
13709;BME280;54933;51.908;7.730;2022-10-16T02:22:26;100471.72;;;22.16;90.11
13709;BME280;54933;51.908;7.730;2022-10-16T02:25:03;100471.72;;;22.16;89.96
13709;BME280;54933;51.908;7.730;2022-10-16T02:30:20;100465.50;;;22.15;90.17
13709;BME280;54933;51.908;7.730;2022-10-16T02:32:48;100470.06;;;22.15;89.98
13709;BME280;54933;51.908;7.730;2022-10-16T02:35:16;100481.72;;;22.15;89.83
13709;BME280;54933;51.908;7.730;2022-10-16T02:37:42;100467.38;;;22.15;89.79
13709;BME280;54933;51.908;7.730;2022-10-16T02:40:08;100468.19;;;22.15;90.05
13709;BME280;54933;51.908;7.730;2022-10-16T02:42:39;100487.94;;;22.16;89.52
13709;BME280;54933;51.908;7.730;2022-10-16T02:45:06;100491.72;;;22.15;89.93
13709;BME280;54933;51.908;7.730;2022-10-16T02:47:31;100486.31;;;22.15;90.04
13709;BME280;54933;51.908;7.730;2022-10-16T02:49:57;100489.03;;;22.15;89.77
13709;BME280;54933;51.908;7.730;2022-10-16T02:52:22;100496.06;;;22.16;89.85
13709;BME280;54933;51.908;7.730;2022-10-16T02:54:47;100487.16;;;22.15;89.90
13709;BME280;54933;51.908;7.730;2022-10-16T02:57:13;100491.72;;;22.15;89.96
13709;BME280;54933;51.908;7.730;2022-10-16T02:59:38;100497.13;;;22.15;89.75
13709;BME280;54933;51.908;7.730;2022-10-16T03:02:04;100488.78;;;22.16;89.94
13709;BME280;54933;51.908;7.730;2022-10-16T03:04:29;100487.16;;;22.15;89.89
13709;BME280;54933;51.908;7.730;2022-10-16T03:06:54;100487.16;;;22.15;89.86
13709;BME280;54933;51.908;7.730;2022-10-16T03:09:19;100483.38;;;22.16;89.73
13709;BME280;54933;51.908;7.730;2022-10-16T03:11:45;100471.72;;;22.16;89.76
13709;BME280;54933;51.908;7.730;2022-10-16T03:14:10;100481.72;;;22.15;89.64
13709;BME280;54933;51.908;7.730;2022-10-16T03:16:35;100471.72;;;22.16;89.86
13709;BME280;54933;51.908;7.730;2022-10-16T03:19:00;100479.81;;;22.16;89.49
13709;BME280;54933;51.908;7.730;2022-10-16T03:21:26;100486.06;;;22.16;89.67
13709;BME280;54933;51.908;7.730;2022-10-16T03:23:51;100489.84;;;22.15;89.91
13709;BME280;54933;51.908;7.730;2022-10-16T03:26:16;100490.66;;;22.16;89.75
13709;BME280;54933;51.908;7.730;2022-10-16T03:28:42;100493.38;;;22.16;89.39
13709;BME280;54933;51.908;7.730;2022-10-16T03:31:07;100487.16;;;22.15;89.47
13709;BME280;54933;51.908;7.730;2022-10-16T03:33:33;100496.06;;;22.16;89.59
13709;BME280;54933;51.908;7.730;2022-10-16T03:35:58;100496.06;;;22.16;89.72
13709;BME280;54933;51.908;7.730;2022-10-16T03:38:24;100488.78;;;22.16;89.35
13709;BME280;54933;51.908;7.730;2022-10-16T03:40:49;100494.19;;;22.16;89.58
13709;BME280;54933;51.908;7.730;2022-10-16T03:43:14;100484.22;;;22.17;89.60
13709;BME280;54933;51.908;7.730;2022-10-16T03:45:39;100486.06;;;22.16;89.31
13709;BME280;54933;51.908;7.730;2022-10-16T03:48:05;100487.94;;;22.16;89.82
13709;BME280;54933;51.908;7.730;2022-10-16T03:50:30;100487.94;;;22.16;89.79
13709;BME280;54933;51.908;7.730;2022-10-16T03:52:56;100486.06;;;22.16;89.58
13709;BME280;54933;51.908;7.730;2022-10-16T03:55:21;100485.25;;;22.16;89.55
13709;BME280;54933;51.908;7.730;2022-10-16T03:57:46;100489.63;;;22.17;89.20
13709;BME280;54933;51.908;7.730;2022-10-16T04:00:12;100476.31;;;22.15;89.44
13709;BME280;54933;51.908;7.730;2022-10-16T04:02:37;100487.94;;;22.16;89.42
13709;BME280;54933;51.908;7.730;2022-10-16T04:05:03;100497.75;;;22.17;89.51
13709;BME280;54933;51.908;7.730;2022-10-16T04:07:28;100495.03;;;22.17;89.82
13709;BME280;54933;51.908;7.730;2022-10-16T04:09:54;100484.44;;;22.15;89.25
13709;BME280;54933;51.908;7.730;2022-10-16T04:12:19;100497.75;;;22.17;89.33
13709;BME280;54933;51.908;7.730;2022-10-16T04:14:45;100509.59;;;22.16;89.20
13709;BME280;54933;51.908;7.730;2022-10-16T04:17:10;100504.19;;;22.16;89.26
13709;BME280;54933;51.908;7.730;2022-10-16T04:19:35;100504.19;;;22.16;89.55
13709;BME280;54933;51.908;7.730;2022-10-16T04:22:00;100504.19;;;22.16;89.44
13709;BME280;54933;51.908;7.730;2022-10-16T04:24:26;100515.84;;;22.16;89.61
13709;BME280;54933;51.908;7.730;2022-10-16T04:26:51;100522.09;;;22.17;89.55
13709;BME280;54933;51.908;7.730;2022-10-16T04:29:16;100519.38;;;22.17;89.30
13709;BME280;54933;51.908;7.730;2022-10-16T04:31:41;100513.97;;;22.17;89.21
13709;BME280;54933;51.908;7.730;2022-10-16T04:34:07;100515.84;;;22.16;89.43
13709;BME280;54933;51.908;7.730;2022-10-16T04:36:32;100522.09;;;22.17;89.33
13709;BME280;54933;51.908;7.730;2022-10-16T04:38:57;100528.53;;;22.16;89.36
13709;BME280;54933;51.908;7.730;2022-10-16T04:41:23;100529.16;;;22.18;89.52
13709;BME280;54933;51.908;7.730;2022-10-16T04:43:48;100529.16;;;22.18;89.46
13709;BME280;54933;51.908;7.730;2022-10-16T04:46:13;100537.25;;;22.18;89.37
13709;BME280;54933;51.908;7.730;2022-10-16T04:48:38;100539.97;;;22.18;89.04
13709;BME280;54933;51.908;7.730;2022-10-16T04:51:04;100542.69;;;22.18;89.49
13709;BME280;54933;51.908;7.730;2022-10-16T04:53:29;100535.63;;;22.17;89.61
13709;BME280;54933;51.908;7.730;2022-10-16T04:55:54;100532.91;;;22.17;89.23
13709;BME280;54933;51.908;7.730;2022-10-16T04:58:21;100537.50;;;22.16;89.25
13709;BME280;54933;51.908;7.730;2022-10-16T05:00:46;100531.25;;;22.16;89.20
13709;BME280;54933;51.908;7.730;2022-10-16T05:03:12;100533.16;;;22.15;89.18
13709;BME280;54933;51.908;7.730;2022-10-16T05:05:42;100542.06;;;22.16;88.86
13709;BME280;54933;51.908;7.730;2022-10-16T05:08:08;100541.28;;;22.15;89.05
13709;BME280;54933;51.908;7.730;2022-10-16T05:10:34;100552.91;;;22.16;88.99
13709;BME280;54933;51.908;7.730;2022-10-16T05:12:59;100552.09;;;22.15;89.09
13709;BME280;54933;51.908;7.730;2022-10-16T05:15:24;100557.50;;;22.15;89.07
13709;BME280;54933;51.908;7.730;2022-10-16T05:17:53;100548.56;;;22.15;88.67
13709;BME280;54933;51.908;7.730;2022-10-16T05:20:18;100544.78;;;22.16;88.76
13709;BME280;54933;51.908;7.730;2022-10-16T05:22:43;100545.84;;;22.15;88.67
13709;BME280;54933;51.908;7.730;2022-10-16T05:25:09;100551.25;;;22.15;88.88
13709;BME280;54933;51.908;7.730;2022-10-16T05:27:34;100561.03;;;22.16;88.78
13709;BME280;54933;51.908;7.730;2022-10-16T05:29:59;100558.31;;;22.16;88.73
13709;BME280;54933;51.908;7.730;2022-10-16T05:32:24;100563.72;;;22.16;88.73
13709;BME280;54933;51.908;7.730;2022-10-16T05:34:50;100568.34;;;22.15;88.58
13709;BME280;54933;51.908;7.730;2022-10-16T05:37:15;100567.50;;;22.15;88.41
13709;BME280;54933;51.908;7.730;2022-10-16T05:39:41;100573.75;;;22.15;88.53
13709;BME280;54933;51.908;7.730;2022-10-16T05:42:06;100577.50;;;22.14;88.30
13709;BME280;54933;51.908;7.730;2022-10-16T05:44:31;100584.56;;;22.15;88.32
13709;BME280;54933;51.908;7.730;2022-10-16T05:46:57;100580.81;;;22.16;88.23
13709;BME280;54933;51.908;7.730;2022-10-16T05:49:22;100581.63;;;22.17;88.20
13709;BME280;54933;51.908;7.730;2022-10-16T05:51:48;100579.97;;;22.16;88.18
13709;BME280;54933;51.908;7.730;2022-10-16T05:54:13;100587.03;;;22.17;88.38
13709;BME280;54933;51.908;7.730;2022-10-16T05:56:38;100590.78;;;22.16;88.58
13709;BME280;54933;51.908;7.730;2022-10-16T05:59:04;100594.56;;;22.15;88.93
13709;BME280;54933;51.908;7.730;2022-10-16T06:01:29;100599.97;;;22.15;89.23
13709;BME280;54933;51.908;7.730;2022-10-16T06:03:56;100609.16;;;22.14;89.48
13709;BME280;54933;51.908;7.730;2022-10-16T06:06:23;100603.75;;;22.14;88.91
13709;BME280;54933;51.908;7.730;2022-10-16T06:08:51;100595.63;;;22.14;89.31
13709;BME280;54933;51.908;7.730;2022-10-16T06:11:18;100603.75;;;22.14;89.28
13709;BME280;54933;51.908;7.730;2022-10-16T06:13:44;100603.75;;;22.14;89.45
13709;BME280;54933;51.908;7.730;2022-10-16T06:16:11;100598.34;;;22.14;89.59
13709;BME280;54933;51.908;7.730;2022-10-16T06:18:37;100612.91;;;22.13;89.29
13709;BME280;54933;51.908;7.730;2022-10-16T06:21:23;100606.69;;;22.12;89.30
13709;BME280;54933;51.908;7.730;2022-10-16T06:23:53;100618.31;;;22.13;89.35
13709;BME280;54933;51.908;7.730;2022-10-16T06:26:20;100630.81;;;22.14;89.16
13709;BME280;54933;51.908;7.730;2022-10-16T06:28:46;100640.81;;;22.13;89.26
13709;BME280;54933;51.908;7.730;2022-10-16T06:31:12;100638.31;;;22.12;89.40
13709;BME280;54933;51.908;7.730;2022-10-16T06:33:38;100642.66;;;22.13;89.16
13709;BME280;54933;51.908;7.730;2022-10-16T06:36:10;100647.47;;;22.11;89.34
13709;BME280;54933;51.908;7.730;2022-10-16T06:38:37;100652.69;;;22.12;89.47
13709;BME280;54933;51.908;7.730;2022-10-16T06:41:04;100659.13;;;22.11;89.16
13709;BME280;54933;51.908;7.730;2022-10-16T06:43:30;100669.97;;;22.11;89.12
13709;BME280;54933;51.908;7.730;2022-10-16T06:46:00;100670.81;;;22.12;88.98
13709;BME280;54933;51.908;7.730;2022-10-16T06:48:26;100674.53;;;22.11;89.17
13709;BME280;54933;51.908;7.730;2022-10-16T06:53:21;100674.53;;;22.11;89.23
13709;BME280;54933;51.908;7.730;2022-10-16T06:55:46;100679.16;;;22.10;89.39
13709;BME280;54933;51.908;7.730;2022-10-16T06:58:11;100683.72;;;22.10;89.52
13709;BME280;54933;51.908;7.730;2022-10-16T07:00:36;100689.97;;;22.10;89.59
13709;BME280;54933;51.908;7.730;2022-10-16T07:03:02;100683.72;;;22.10;89.50
13709;BME280;54933;51.908;7.730;2022-10-16T07:05:27;100686.44;;;22.10;89.71
13709;BME280;54933;51.908;7.730;2022-10-16T07:07:52;100688.06;;;22.11;89.45
13709;BME280;54933;51.908;7.730;2022-10-16T07:10:17;100692.44;;;22.12;89.24
13709;BME280;54933;51.908;7.730;2022-10-16T07:12:43;100693.47;;;22.11;89.31
13709;BME280;54933;51.908;7.730;2022-10-16T07:15:10;100694.31;;;22.11;89.34
13709;BME280;54933;51.908;7.730;2022-10-16T07:17:35;100711.41;;;22.12;89.20
13709;BME280;54933;51.908;7.730;2022-10-16T07:20:01;100712.44;;;22.11;89.16
13709;BME280;54933;51.908;7.730;2022-10-16T07:22:28;100721.38;;;22.11;89.02
13709;BME280;54933;51.908;7.730;2022-10-16T07:24:53;100730.34;;;22.12;88.80
13709;BME280;54933;51.908;7.730;2022-10-16T07:27:18;100740.31;;;22.11;88.58
13709;BME280;54933;51.908;7.730;2022-10-16T07:29:44;100746.56;;;22.12;88.64
13709;BME280;54933;51.908;7.730;2022-10-16T07:32:09;100746.56;;;22.12;88.79
13709;BME280;54933;51.908;7.730;2022-10-16T07:34:34;100753.63;;;22.13;88.70
13709;BME280;54933;51.908;7.730;2022-10-16T07:36:59;100756.78;;;22.10;88.46
13709;BME280;54933;51.908;7.730;2022-10-16T07:39:25;100763.03;;;22.10;88.65
13709;BME280;54933;51.908;7.730;2022-10-16T07:41:50;100762.19;;;22.10;88.47
13709;BME280;54933;51.908;7.730;2022-10-16T07:44:15;100767.63;;;22.10;88.76
13709;BME280;54933;51.908;7.730;2022-10-16T07:46:40;100768.69;;;22.09;88.92
13709;BME280;54933;51.908;7.730;2022-10-16T07:49:06;100769.50;;;22.09;89.15
13709;BME280;54933;51.908;7.730;2022-10-16T07:51:31;100775.75;;;22.10;89.30
13709;BME280;54933;51.908;7.730;2022-10-16T07:53:57;100774.09;;;22.09;88.93
13709;BME280;54933;51.908;7.730;2022-10-16T07:56:22;100771.38;;;22.09;89.31
13709;BME280;54933;51.908;7.730;2022-10-16T07:58:48;100771.38;;;22.09;89.64
13709;BME280;54933;51.908;7.730;2022-10-16T08:01:16;100774.44;;;21.70;86.51
13709;BME280;54933;51.908;7.730;2022-10-16T08:03:46;100780.84;;;21.44;81.18
13709;BME280;54933;51.908;7.730;2022-10-16T08:06:11;100790.94;;;21.62;80.30
13709;BME280;54933;51.908;7.730;2022-10-16T08:08:36;100795.16;;;21.76;81.05
13709;BME280;54933;51.908;7.730;2022-10-16T08:11:02;100801.97;;;21.85;82.06
13709;BME280;54933;51.908;7.730;2022-10-16T08:13:29;100810.22;;;21.65;80.44
13709;BME280;54933;51.908;7.730;2022-10-16T08:15:54;100815.69;;;21.58;78.73
13709;BME280;54933;51.908;7.730;2022-10-16T08:18:20;100817.00;;;21.49;78.58
13709;BME280;54933;51.908;7.730;2022-10-16T08:20:45;100823.25;;;21.50;78.71
13709;BME280;54933;51.908;7.730;2022-10-16T08:23:12;100821.47;;;21.62;79.44
13709;BME280;54933;51.908;7.730;2022-10-16T08:25:38;100824.75;;;21.71;80.04
13709;BME280;54933;51.908;7.730;2022-10-16T08:28:04;100822.22;;;21.76;80.53
13709;BME280;54933;51.908;7.730;2022-10-16T08:30:30;100826.19;;;21.80;81.27
13709;BME280;54933;51.908;7.730;2022-10-16T08:32:56;100821.34;;;21.82;81.88
13709;BME280;54933;51.908;7.730;2022-10-16T08:35:21;100823.91;;;21.77;81.97
13709;BME280;54933;51.908;7.730;2022-10-16T08:37:46;100830.56;;;21.74;80.91
13709;BME280;54933;51.908;7.730;2022-10-16T08:40:22;100834.31;;;21.80;81.39
13709;BME280;54933;51.908;7.730;2022-10-16T08:48:41;100834.47;;;21.53;80.13
13709;BME280;54933;51.908;7.730;2022-10-16T08:51:09;100837.75;;;21.55;79.68
13709;BME280;54933;51.908;7.730;2022-10-16T08:53:43;100840.59;;;21.67;80.16
13709;BME280;54933;51.908;7.730;2022-10-16T08:56:09;100851.34;;;21.74;80.78
13709;BME280;54933;51.908;7.730;2022-10-16T08:58:34;100858.03;;;21.78;81.58
13709;BME280;54933;51.908;7.730;2022-10-16T09:01:02;100856.75;;;21.80;81.97
13709;BME280;54933;51.908;7.730;2022-10-16T09:06:46;100862.59;;;21.77;81.74
13709;BME280;54933;51.908;7.730;2022-10-16T09:12:12;100872.75;;;21.82;82.51
13709;BME280;54933;51.908;7.730;2022-10-16T09:17:56;100873.81;;;21.81;82.98
13709;BME280;54933;51.908;7.730;2022-10-16T09:23:07;100885.47;;;21.81;83.39
13709;BME280;54933;51.908;7.730;2022-10-16T09:25:35;100889.00;;;21.82;83.40
13709;BME280;54933;51.908;7.730;2022-10-16T09:28:00;100885.09;;;21.78;83.10
13709;BME280;54933;51.908;7.730;2022-10-16T09:30:28;100883.34;;;21.83;83.35
13709;BME280;54933;51.908;7.730;2022-10-16T09:32:54;100886.28;;;21.82;83.89
13709;BME280;54933;51.908;7.730;2022-10-16T09:35:35;100882.56;;;21.83;83.91
13709;BME280;54933;51.908;7.730;2022-10-16T09:38:01;100888.53;;;21.85;84.19
13709;BME280;54933;51.908;7.730;2022-10-16T09:40:35;100879.41;;;21.86;84.51
13709;BME280;54933;51.908;7.730;2022-10-16T09:43:25;100885.66;;;21.86;84.67
13709;BME280;54933;51.908;7.730;2022-10-16T09:45:56;100899.97;;;21.87;84.71
13709;BME280;54933;51.908;7.730;2022-10-16T09:48:22;100897.28;;;21.87;84.81
13709;BME280;54933;51.908;7.730;2022-10-16T09:51:02;100889.00;;;21.82;85.04
13709;BME280;54933;51.908;7.730;2022-10-16T09:53:42;100895.28;;;21.69;82.84
13709;BME280;54933;51.908;7.730;2022-10-16T09:56:20;100907.13;;;21.75;82.10
13709;BME280;54933;51.908;7.730;2022-10-16T09:58:51;100907.34;;;21.80;82.66
13709;BME280;54933;51.908;7.730;2022-10-16T10:01:17;100904.00;;;21.78;82.58
13709;BME280;54933;51.908;7.730;2022-10-16T10:03:43;100907.94;;;21.82;83.41
13709;BME280;54933;51.908;7.730;2022-10-16T10:06:22;100907.44;;;21.60;81.27
13709;BME280;54933;51.908;7.730;2022-10-16T10:09:00;100899.81;;;21.44;78.79
13709;BME280;54933;51.908;7.730;2022-10-16T10:11:37;100917.00;;;21.18;77.44
13709;BME280;54933;51.908;7.730;2022-10-16T10:14:05;100919.28;;;21.15;77.01
13709;BME280;54933;51.908;7.730;2022-10-16T10:16:30;100920.69;;;21.30;77.25
13709;BME280;54933;51.908;7.730;2022-10-16T10:19:00;100921.44;;;21.44;78.24
13709;BME280;54933;51.908;7.730;2022-10-16T10:21:25;100922.28;;;21.44;78.29
13709;BME280;54933;51.908;7.730;2022-10-16T10:23:56;100912.25;;;21.51;78.46
13709;BME280;54933;51.908;7.730;2022-10-16T10:26:24;100925.97;;;21.57;79.04
13709;BME280;54933;51.908;7.730;2022-10-16T10:37:43;100932.94;;;21.71;81.80
13709;BME280;54933;51.908;7.730;2022-10-16T10:40:48;100934.59;;;21.72;82.18
13709;BME280;54933;51.908;7.730;2022-10-16T10:45:47;100931.69;;;21.73;82.98
13709;BME280;54933;51.908;7.730;2022-10-16T10:48:24;100942.28;;;21.75;83.28
13709;BME280;54933;51.908;7.730;2022-10-16T10:51:13;100938.53;;;21.76;83.73
13709;BME280;54933;51.908;7.730;2022-10-16T10:54:05;100937.50;;;21.77;83.96
13709;BME280;54933;51.908;7.730;2022-10-16T10:56:43;100940.22;;;21.77;84.26
13709;BME280;54933;51.908;7.730;2022-10-16T11:01:56;100940.81;;;21.79;84.35
13709;BME280;54933;51.908;7.730;2022-10-16T11:07:18;100948.50;;;21.82;84.88
13709;BME280;54933;51.908;7.730;2022-10-16T11:09:52;100950.19;;;21.83;85.29
13709;BME280;54933;51.908;7.730;2022-10-16T11:12:23;100952.88;;;21.83;85.47
13709;BME280;54933;51.908;7.730;2022-10-16T11:15:00;100948.28;;;21.83;85.21
13709;BME280;54933;51.908;7.730;2022-10-16T11:17:39;100949.97;;;21.84;85.45
13709;BME280;54933;51.908;7.730;2022-10-16T11:20:26;100949.97;;;21.84;86.41
13709;BME280;54933;51.908;7.730;2022-10-16T11:23:11;100956.19;;;21.85;86.51
13709;BME280;54933;51.908;7.730;2022-10-16T11:25:39;100959.94;;;21.84;86.78
13709;BME280;54933;51.908;7.730;2022-10-16T11:28:11;100959.94;;;21.84;87.49
13709;BME280;54933;51.908;7.730;2022-10-16T11:30:48;100963.25;;;21.86;87.69
13709;BME280;54933;51.908;7.730;2022-10-16T11:38:32;100960.13;;;21.89;88.82
13709;BME280;54933;51.908;7.730;2022-10-16T11:41:22;100962.22;;;21.87;89.13
13709;BME280;54933;51.908;7.730;2022-10-16T11:43:57;100957.84;;;21.86;89.48
13709;BME280;54933;51.908;7.730;2022-10-16T11:46:27;100957.84;;;21.86;89.63
13709;BME280;54933;51.908;7.730;2022-10-16T11:49:11;100972.41;;;21.85;90.05
13709;BME280;54933;51.908;7.730;2022-10-16T11:54:30;100965.34;;;21.84;90.13
13709;BME280;54933;51.908;7.730;2022-10-16T11:57:01;100970.75;;;21.84;90.06
13709;BME280;54933;51.908;7.730;2022-10-16T11:59:42;100973.47;;;21.84;90.59
13709;BME280;54933;51.908;7.730;2022-10-16T12:02:28;100980.75;;;21.83;90.64
13709;BME280;54933;51.908;7.730;2022-10-16T12:05:19;100969.13;;;21.83;90.42
13709;BME280;54933;51.908;7.730;2022-10-16T12:07:54;100976.19;;;21.84;90.79
13709;BME280;54933;51.908;7.730;2022-10-16T12:10:27;100977.22;;;21.83;90.49
13709;BME280;54933;51.908;7.730;2022-10-16T12:12:53;100979.94;;;21.83;90.77
13709;BME280;54933;51.908;7.730;2022-10-16T12:17:44;100978.03;;;21.83;90.51
13709;BME280;54933;51.908;7.730;2022-10-16T12:22:42;100981.59;;;21.84;91.05
13709;BME280;54933;51.908;7.730;2022-10-16T12:25:34;100977.00;;;21.84;91.53
13709;BME280;54933;51.908;7.730;2022-10-16T12:28:03;100983.22;;;21.85;91.52
13709;BME280;54933;51.908;7.730;2022-10-16T12:30:33;100983.44;;;21.83;91.65
13709;BME280;54933;51.908;7.730;2022-10-16T12:33:05;100992.41;;;21.84;91.79
13709;BME280;54933;51.908;7.730;2022-10-16T12:35:35;100992.41;;;21.84;92.26
13709;BME280;54933;51.908;7.730;2022-10-16T12:38:30;100993.25;;;21.84;92.25
13709;BME280;54933;51.908;7.730;2022-10-16T12:41:06;100999.47;;;21.85;92.18
13709;BME280;54933;51.908;7.730;2022-10-16T12:43:46;101003.22;;;21.84;92.37
13709;BME280;54933;51.908;7.730;2022-10-16T12:48:38;101005.31;;;21.82;91.42
13709;BME280;54933;51.908;7.730;2022-10-16T12:56:51;101016.75;;;21.84;91.70
13709;BME280;54933;51.908;7.730;2022-10-16T13:02:34;101017.81;;;21.83;91.98
13709;BME280;54933;51.908;7.730;2022-10-16T13:08:01;101014.03;;;21.84;91.36
13709;BME280;54933;51.908;7.730;2022-10-16T13:10:52;101007.78;;;21.83;91.95
13709;BME280;54933;51.908;7.730;2022-10-16T13:22:08;101031.13;;;21.84;91.79
13709;BME280;54933;51.908;7.730;2022-10-16T13:24:48;101024.88;;;21.84;91.72
13709;BME280;54933;51.908;7.730;2022-10-16T13:27:30;101024.66;;;21.85;92.29
13709;BME280;54933;51.908;7.730;2022-10-16T13:30:02;101032.75;;;21.85;92.31
13709;BME280;54933;51.908;7.730;2022-10-16T13:32:35;101031.94;;;21.85;91.94
13709;BME280;54933;51.908;7.730;2022-10-16T13:35:01;101026.50;;;21.85;92.25
13709;BME280;54933;51.908;7.730;2022-10-16T13:37:26;101021.09;;;21.85;92.65
13709;BME280;54933;51.908;7.730;2022-10-16T13:40:04;101024.88;;;21.84;92.05
13709;BME280;54933;51.908;7.730;2022-10-16T13:42:32;101033.59;;;21.86;92.36
13709;BME280;54933;51.908;7.730;2022-10-16T13:44:58;101027.34;;;21.85;92.47
13709;BME280;54933;51.908;7.730;2022-10-16T13:47:26;101028.19;;;21.86;92.47
13709;BME280;54933;51.908;7.730;2022-10-16T13:50:02;101029.84;;;21.87;92.40
13709;BME280;54933;51.908;7.730;2022-10-16T13:52:29;101035.25;;;21.87;92.45
13709;BME280;54933;51.908;7.730;2022-10-16T13:54:55;101047.13;;;21.86;92.54
13709;BME280;54933;51.908;7.730;2022-10-16T13:57:22;101046.06;;;21.87;92.53
13709;BME280;54933;51.908;7.730;2022-10-16T13:59:48;101041.72;;;21.86;92.37
13709;BME280;54933;51.908;7.730;2022-10-16T14:02:22;101046.06;;;21.87;92.33
13709;BME280;54933;51.908;7.730;2022-10-16T14:04:50;101046.91;;;21.87;92.34
13709;BME280;54933;51.908;7.730;2022-10-16T14:07:24;101049.63;;;21.87;92.62
13709;BME280;54933;51.908;7.730;2022-10-16T14:09:51;101053.16;;;21.88;92.55
13709;BME280;54933;51.908;7.730;2022-10-16T14:12:17;101052.94;;;21.89;92.38
13709;BME280;54933;51.908;7.730;2022-10-16T14:14:45;101050.25;;;21.89;92.56
13709;BME280;54933;51.908;7.730;2022-10-16T14:19:50;101055.66;;;21.89;92.34
13709;BME280;54933;51.908;7.730;2022-10-16T14:24:58;101050.03;;;21.91;92.53
13709;BME280;54933;51.908;7.730;2022-10-16T14:27:30;101047.31;;;21.91;92.57
13709;BME280;54933;51.908;7.730;2022-10-16T14:32:36;101058.94;;;21.91;92.25
13709;BME280;54933;51.908;7.730;2022-10-16T14:35:01;101048.13;;;21.91;92.39